Time;durP1;ratioP1;P1;durP2;ratioP2;P2;SDS_P1;SDS_P2;PMS_P1;PMS_P2;Temp;Humidity;BMP_temperature;BMP_pressure;BME280_temperature;BME280_humidity;BME280_pressure;Samples;Min_cycle;Max_cycle;Signal;HPM_P1;HPM_P2
2021/04/07 00:01:15;;;;;;;3.83;3.28;;;;;;;4.91;63.70;99936.03;4843293;29;20074;-70
2021/04/07 00:03:42;;;;;;;3.63;3.28;;;;;;;4.70;63.99;99940.13;4843637;29;20049;-69
2021/04/07 00:06:08;;;;;;;3.88;3.10;;;;;;;4.67;64.59;99943.63;4833258;29;20046;-69
2021/04/07 00:08:36;;;;;;;3.33;3.00;;;;;;;4.78;63.92;99942.44;4825280;29;20450;-70
2021/04/07 00:11:03;;;;;;;3.47;3.10;;;;;;;4.55;64.92;99935.41;4825040;29;20050;-69
2021/04/07 00:13:30;;;;;;;5.05;3.50;;;;;;;4.60;64.34;99931.81;4824765;29;20042;-69
2021/04/07 00:15:56;;;;;;;6.28;5.03;;;;;;;4.42;65.05;99933.22;4824432;29;20510;-69
2021/04/07 00:18:22;;;;;;;7.45;5.50;;;;;;;4.51;64.25;99934.66;4835170;29;20110;-69
2021/04/07 00:20:49;;;;;;;5.10;4.30;;;;;;;4.42;64.48;99933.22;4844015;29;20587;-69
2021/04/07 00:23:15;;;;;;;5.15;3.60;;;;;;;4.55;64.18;99930.25;4843237;29;20056;-69
2021/04/07 00:25:42;;;;;;;4.95;4.32;;;;;;;4.57;63.95;99933.63;4829182;29;20056;-70
2021/04/07 00:28:10;;;;;;;5.05;3.97;;;;;;;4.58;64.04;99932.72;4824140;29;20126;-70
2021/04/07 00:30:38;;;;;;;5.95;4.28;;;;;;;4.43;64.82;99931.47;4839183;29;20458;-69
2021/04/07 00:33:05;;;;;;;4.32;3.70;;;;;;;4.49;64.13;99933.88;4823675;29;20470;-70
2021/04/07 00:35:32;;;;;;;6.47;4.40;;;;;;;4.40;64.45;99939.28;4824630;29;20054;-69
2021/04/07 00:37:59;;;;;;;5.18;4.00;;;;;;;4.31;64.95;99931.81;4825552;29;20138;-69
2021/04/07 00:40:26;;;;;;;4.05;3.70;;;;;;;4.27;65.15;99930.25;4824704;29;20046;-69
2021/04/07 00:42:54;;;;;;;5.45;4.10;;;;;;;4.32;64.55;99930.94;4824096;29;20418;-69
2021/04/07 00:45:22;;;;;;;4.80;4.18;;;;;;;4.47;63.70;99923.59;4828497;29;20500;-69
2021/04/07 00:47:53;;;;;;;3.55;3.25;;;;;;;4.35;63.77;99929.09;4841555;29;20084;-69
2021/04/07 00:50:22;;;;;;;4.72;3.10;;;;;;;4.20;64.88;99925.22;4824060;29;20077;-69
2021/04/07 00:52:49;;;;;;;4.45;4.00;;;;;;;4.19;65.34;99928.72;4825243;29;20042;-69
2021/04/07 00:55:25;;;;;;;6.47;3.90;;;;;;;4.14;65.30;99925.41;4825582;29;20057;-69
2021/04/07 00:57:53;;;;;;;6.03;4.45;;;;;;;4.20;64.79;99935.56;4840966;29;20046;-69
2021/04/07 01:00:21;;;;;;;5.57;3.90;;;;;;;4.17;65.22;99933.06;4843162;29;20117;-69
2021/04/07 01:02:55;;;;;;;4.28;3.50;;;;;;;4.10;65.53;99944.47;4834028;29;20061;-70
2021/04/07 01:05:22;;;;;;;;;;;;;;;4.11;65.57;99947.91;4842313;29;20085;-69
2021/04/07 01:07:49;;;;;;;4.68;4.28;;;;;;;4.20;65.26;99943.28;4834092;29;19954;-70
2021/04/07 01:10:16;;;;;;;5.00;3.85;;;;;;;4.23;64.35;99949.28;4823562;29;20047;-70
2021/04/07 01:12:44;;;;;;;6.18;4.90;;;;;;;4.20;64.82;99945.03;4823440;29;20100;-70
2021/04/07 01:15:13;;;;;;;5.07;4.22;;;;;;;4.23;64.81;99947.53;4823330;29;20095;-70
2021/04/07 01:17:40;;;;;;;5.22;3.42;;;;;;;4.20;65.52;99945.88;4828050;29;20046;-70
2021/04/07 01:20:10;;;;;;;4.57;4.18;;;;;;;4.44;64.60;99943.47;4829613;29;20509;-70
2021/04/07 01:22:38;;;;;;;4.35;3.88;;;;;;;4.43;64.51;99946.97;4822752;29;20099;-70
2021/04/07 01:25:07;;;;;;;14.40;4.68;;;;;;;4.33;64.18;99945.53;4822690;29;20137;-69
2021/04/07 01:27:36;;;;;;;4.65;3.85;;;;;;;4.22;63.91;99943.28;4822177;29;20114;-70
2021/04/07 01:30:09;;;;;;;9.77;5.28;;;;;;;4.09;64.89;99958.22;4832560;29;20074;-70
2021/04/07 01:32:37;;;;;;;6.45;4.40;;;;;;;4.11;64.45;99955.63;4841040;29;20042;-70
2021/04/07 01:35:05;;;;;;;4.28;3.88;;;;;;;4.08;64.60;99955.69;4841491;29;20054;-70
2021/04/07 01:37:35;;;;;;;4.43;4.00;;;;;;;4.09;64.70;99957.38;4840689;29;20042;-70
2021/04/07 01:40:08;;;;;;;4.25;3.85;;;;;;;4.09;64.25;99953.06;4842099;29;20057;-70
2021/04/07 01:42:35;;;;;;;5.35;4.13;;;;;;;4.16;64.29;99958.94;4840305;29;20054;-70
2021/04/07 01:45:04;;;;;;;5.45;4.68;;;;;;;4.09;63.86;99963.41;4842619;29;20042;-70
2021/04/07 01:47:35;;;;;;;4.45;4.05;;;;;;;4.09;63.95;99970.28;4842908;29;20129;-70
2021/04/07 01:50:05;;;;;;;4.53;4.13;;;;;;;4.00;64.83;99971.41;4842479;29;20046;-70
2021/04/07 01:52:31;;;;;;;4.53;4.00;;;;;;;4.20;64.11;99979.41;4837044;29;20043;-70
2021/04/07 01:54:58;;;;;;;7.22;4.00;;;;;;;4.22;63.63;99984.56;4822714;29;20355;-70
2021/04/07 01:57:24;;;;;;;6.25;4.00;;;;;;;4.14;63.44;99983.91;4822505;29;20058;-70
2021/04/07 01:59:51;;;;;;;5.03;4.47;;;;;;;4.26;62.71;99986.16;4823292;29;20074;-70
2021/04/07 02:02:17;;;;;;;5.28;4.45;;;;;;;4.00;64.82;99981.72;4823014;29;20133;-70
2021/04/07 02:04:44;;;;;;;5.55;4.68;;;;;;;3.92;64.82;99983.66;4827950;29;20038;-70
2021/04/07 02:07:13;;;;;;;7.65;4.93;;;;;;;4.01;65.08;99982.56;4829512;29;20038;-70
2021/04/07 02:09:40;;;;;;;6.15;5.15;;;;;;;4.01;65.46;99990.31;4822662;29;20585;-70
2021/04/07 02:12:07;;;;;;;5.18;4.68;;;;;;;4.10;64.85;99998.66;4822437;29;20125;-70
2021/04/07 02:14:34;;;;;;;5.15;4.65;;;;;;;4.00;66.04;100004.94;4836670;29;20084;-70
2021/04/07 02:17:03;;;;;;;6.85;5.32;;;;;;;3.98;65.98;100004.13;4841048;29;20069;-70
2021/04/07 02:19:31;;;;;;;5.15;4.65;;;;;;;4.16;65.09;100010.53;4840639;29;20049;-70
2021/04/07 02:22:07;;;;;;;5.57;4.95;;;;;;;4.12;65.65;100001.16;4841916;29;20132;-70
2021/04/07 02:24:38;;;;;;;5.50;4.97;;;;;;;4.16;65.38;100001.06;4841907;29;20054;-70
2021/04/07 02:27:12;;;;;;;5.20;4.70;;;;;;;4.10;65.63;100011.53;4840875;29;20066;-70
2021/04/07 02:29:41;;;;;;;4.90;4.35;;;;;;;4.00;65.89;100004.09;4840757;29;20105;-70
2021/04/07 02:32:07;;;;;;;5.93;4.78;;;;;;;4.01;65.22;100009.19;4836998;29;20038;-70
2021/04/07 02:34:35;;;;;;;4.95;4.35;;;;;;;4.07;65.44;100009.03;4822074;29;20046;-70
2021/04/07 02:37:01;;;;;;;5.82;5.32;;;;;;;3.94;64.97;100010.22;4825265;29;20069;-70
2021/04/07 02:39:28;;;;;;;5.50;4.32;;;;;;;3.86;64.82;100012.19;4823397;29;20047;-70
2021/04/07 02:41:54;;;;;;;5.93;4.68;;;;;;;3.92;64.95;100012.00;4828968;29;20501;-70
2021/04/07 02:44:21;;;;;;;5.60;4.90;;;;;;;3.80;65.69;100012.34;4840246;29;20775;-70
2021/04/07 02:46:48;;;;;;;5.40;4.32;;;;;;;3.84;65.80;100016.56;4834314;29;20050;-70
2021/04/07 02:49:15;;;;;;;5.85;5.35;;;;;;;3.92;65.45;100018.03;4822225;29;20104;-70
2021/04/07 02:51:41;;;;;;;5.63;4.53;;;;;;;4.04;64.97;100018.56;4822128;29;20038;-70
2021/04/07 02:54:08;;;;;;;8.75;4.93;;;;;;;4.11;63.79;100026.13;4828692;29;20050;-70
2021/04/07 02:56:34;;;;;;;4.70;4.25;;;;;;;4.18;63.79;100027.63;4854327;29;20450;-70
2021/04/07 02:59:01;;;;;;;5.28;4.80;;;;;;;4.26;63.56;100031.72;4834722;29;20054;-70
2021/04/07 03:01:27;;;;;;;5.60;5.07;;;;;;;4.12;64.26;100032.97;4822269;29;20050;-70
2021/04/07 03:03:54;;;;;;;7.30;4.47;;;;;;;4.09;64.21;100034.78;4821824;29;20042;-70
2021/04/07 03:06:20;;;;;;;10.77;6.38;;;;;;;4.14;64.10;100038.94;4821880;29;20141;-70
2021/04/07 03:08:48;;;;;;;8.18;4.90;;;;;;;4.06;64.47;100035.72;4822494;29;20054;-70
2021/04/07 03:11:15;;;;;;;7.32;5.65;;;;;;;4.10;64.76;100042.50;4829078;29;20168;-70
2021/04/07 03:13:41;;;;;;;5.95;5.00;;;;;;;4.08;64.50;100044.25;4829254;29;20056;-70
2021/04/07 03:16:08;;;;;;;5.88;5.28;;;;;;;4.10;65.01;100044.19;4840147;29;20071;-70
2021/04/07 03:18:34;;;;;;;8.65;5.68;;;;;;;4.01;65.75;100047.88;4833486;29;20042;-70
2021/04/07 03:21:02;;;;;;;5.65;5.07;;;;;;;3.98;65.82;100045.38;4822530;29;20363;-70
2021/04/07 03:23:28;;;;;;;6.20;5.40;;;;;;;4.03;65.52;100046.09;4821789;29;20452;-70
2021/04/07 03:25:55;;;;;;;5.97;5.47;;;;;;;4.25;64.79;100048.94;4821061;29;20050;-70
2021/04/07 03:28:23;;;;;;;6.57;5.40;;;;;;;3.99;65.36;100048.81;4835910;29;20126;-70
2021/04/07 03:30:53;;;;;;;5.50;4.90;;;;;;;4.11;65.10;100044.19;4840203;29;20042;-70
2021/04/07 03:33:26;;;;;;;5.93;5.43;;;;;;;4.20;65.16;100056.81;4826613;29;20451;-70
2021/04/07 03:35:52;;;;;;;5.82;5.32;;;;;;;4.02;66.33;100049.56;4822725;29;20072;-71
2021/04/07 03:38:19;;;;;;;6.35;5.05;;;;;;;4.12;65.70;100047.59;4822021;29;20050;-70
2021/04/07 03:40:46;;;;;;;6.53;5.55;;;;;;;4.14;65.64;100056.97;4821950;29;20095;-70
2021/04/07 03:43:19;;;;;;;4.88;4.43;;;;;;;4.13;65.61;100052.72;4835753;29;20074;-70
2021/04/07 03:45:47;;;;;;;6.32;5.72;;;;;;;4.24;65.46;100051.59;4822562;29;20497;-70
2021/04/07 03:48:16;;;;;;;6.30;5.32;;;;;;;4.09;66.36;100055.41;4832437;29;20064;-70
2021/04/07 03:50:43;;;;;;;6.00;5.10;;;;;;;4.20;65.76;100061.97;4824860;29;20263;-70
2021/04/07 03:53:11;;;;;;;6.40;5.70;;;;;;;4.13;65.78;100065.63;4824772;29;20055;-70
2021/04/07 03:55:39;;;;;;;6.57;4.97;;;;;;;4.03;66.30;100065.91;4841586;29;20103;-70
2021/04/07 03:58:05;;;;;;;5.70;5.10;;;;;;;4.08;65.76;100075.22;4844301;29;20046;-70
2021/04/07 04:00:33;;;;;;;6.72;5.45;;;;;;;3.92;66.29;100073.91;4826585;29;20042;-70
2021/04/07 04:02:59;;;;;;;7.82;6.03;;;;;;;3.86;65.94;100079.22;4824686;29;20046;-70
2021/04/07 04:05:26;;;;;;;12.45;5.82;;;;;;;3.91;66.27;100088.53;4823882;29;20402;-70
2021/04/07 04:07:53;;;;;;;5.93;5.35;;;;;;;3.90;66.90;100080.84;4825369;29;20529;-70
2021/04/07 04:10:20;;;;;;;9.80;5.40;;;;;;;3.97;66.40;100084.97;4825881;29;20074;-70
2021/04/07 04:12:46;;;;;;;5.72;5.15;;;;;;;4.13;65.38;100082.84;4825492;29;20490;-70
2021/04/07 04:15:14;;;;;;;8.07;6.32;;;;;;;3.96;66.59;100088.44;4824656;29;20047;-70
2021/04/07 04:17:42;;;;;;;5.53;4.97;;;;;;;4.04;66.33;100093.38;4824070;29;20046;-70
2021/04/07 04:20:11;;;;;;;8.38;6.57;;;;;;;4.20;65.61;100092.94;4828058;29;20042;-70
2021/04/07 04:22:39;;;;;;;11.25;6.35;;;;;;;4.16;66.04;100087.91;4842409;29;20053;-71
2021/04/07 04:25:07;;;;;;;12.93;5.95;;;;;;;4.21;65.61;100091.22;4842093;29;20084;-73
2021/04/07 04:27:34;;;;;;;7.88;5.82;;;;;;;4.16;65.71;100093.94;4842949;29;20083;-72
2021/04/07 04:30:01;;;;;;;8.02;6.65;;;;;;;4.20;66.09;100090.34;4841784;29;20078;-72
2021/04/07 04:32:27;;;;;;;8.85;5.90;;;;;;;4.24;65.19;100091.13;4843163;29;20726;-72
2021/04/07 04:34:54;;;;;;;8.95;6.72;;;;;;;4.41;64.29;100093.25;4835238;29;20400;-70
2021/04/07 04:37:20;;;;;;;7.90;5.78;;;;;;;4.54;63.51;100097.22;4831436;29;20450;-70
2021/04/07 04:39:47;;;;;;;6.38;5.65;;;;;;;4.40;64.58;100101.88;4837673;29;20102;-70
2021/04/07 04:42:13;;;;;;;10.43;7.50;;;;;;;4.19;65.77;100100.72;4823649;29;20129;-71
2021/04/07 04:44:39;;;;;;;7.22;6.25;;;;;;;4.18;65.99;100102.47;4822705;29;20387;-70
2021/04/07 04:47:06;;;;;;;10.75;5.80;;;;;;;4.28;66.23;100104.81;4824059;29;20072;-70
2021/04/07 04:49:48;;;;;;;10.02;6.72;;;;;;;4.25;66.71;100112.63;4828456;29;20137;-70
2021/04/07 04:52:14;;;;;;;10.60;5.97;;;;;;;4.17;67.34;100105.94;4842752;29;20057;-70
2021/04/07 04:54:40;;;;;;;7.72;6.28;;;;;;;4.38;66.56;100114.00;4841744;29;20404;-70
2021/04/07 04:57:07;;;;;;;6.65;5.68;;;;;;;4.39;66.38;100111.38;4842221;29;20374;-72
2021/04/07 04:59:33;;;;;;;6.38;5.72;;;;;;;4.38;66.35;100111.41;4842984;29;20054;-71
2021/04/07 05:02:00;;;;;;;9.52;5.68;;;;;;;4.51;66.69;100117.94;4840503;29;20714;-69
2021/04/07 05:04:26;;;;;;;8.70;5.68;;;;;;;4.52;66.05;100122.19;4841031;29;20038;-69
2021/04/07 05:06:52;;;;;;;11.30;5.85;;;;;;;4.62;66.03;100122.81;4842798;29;20056;-69
2021/04/07 05:09:19;;;;;;;6.57;5.88;;;;;;;4.63;66.35;100119.31;4843417;29;20122;-68
2021/04/07 05:11:45;;;;;;;7.35;5.82;;;;;;;4.62;66.00;100117.63;4842964;29;20050;-69
2021/04/07 05:14:12;;;;;;;7.00;5.10;;;;;;;4.56;65.86;100128.97;4841907;29;20052;-69
2021/04/07 05:16:38;;;;;;;7.10;5.13;;;;;;;4.70;65.89;100119.13;4843269;29;20046;-63
2021/04/07 05:19:04;;;;;;;7.80;5.45;;;;;;;4.90;65.29;100128.91;4842776;29;20517;-65
2021/04/07 05:21:31;;;;;;;8.23;6.32;;;;;;;4.81;65.91;100118.81;4843059;29;20061;-64
2021/04/07 05:23:57;;;;;;;8.63;5.82;;;;;;;4.79;65.80;100119.75;4841643;29;20049;-64
2021/04/07 05:26:24;;;;;;;11.50;7.30;;;;;;;4.87;64.99;100115.22;4841983;29;20053;-65
2021/04/07 05:28:50;;;;;;;8.30;6.13;;;;;;;4.97;65.21;100116.66;4843430;29;20046;-63
2021/04/07 05:31:17;;;;;;;9.35;5.97;;;;;;;5.24;63.45;100115.81;4842557;29;20053;-64
2021/04/07 05:33:46;;;;;;;10.07;5.65;;;;;;;5.26;63.68;100120.94;4842747;29;20046;-65
2021/04/07 05:36:14;;;;;;;7.30;5.93;;;;;;;5.19;64.42;100119.44;4842694;29;20573;-65
2021/04/07 05:38:42;;;;;;;7.20;5.32;;;;;;;5.28;65.02;100120.91;4842988;29;20511;-65
2021/04/07 05:41:09;;;;;;;9.02;4.63;;;;;;;5.37;64.70;100118.03;4843112;29;20052;-63
2021/04/07 05:43:38;;;;;;;8.60;4.60;;;;;;;5.49;64.15;100117.69;4842715;29;20133;-63
2021/04/07 05:46:05;;;;;;;9.20;5.70;;;;;;;5.77;63.50;100127.97;4840242;29;20077;-65
2021/04/07 05:48:31;;;;;;;13.32;4.30;;;;;;;6.13;62.87;100125.97;4833684;29;20050;-65
2021/04/07 05:51:02;;;;;;;9.70;4.43;;;;;;;6.67;60.98;100126.69;4842666;29;20513;-65
2021/04/07 05:53:29;;;;;;;6.05;3.08;;;;;;;7.13;59.60;100123.22;4842097;29;20049;-65
2021/04/07 05:55:57;;;;;;;5.18;3.90;;;;;;;7.47;58.28;100114.19;4842370;29;20050;-66
2021/04/07 05:58:25;;;;;;;5.43;2.95;;;;;;;7.73;56.35;100111.41;4842363;29;20073;-62
2021/04/07 06:00:52;;;;;;;2.40;2.20;;;;;;;8.01;55.86;100105.91;4842668;29;20053;-77
2021/04/07 06:03:19;;;;;;;3.35;2.30;;;;;;;8.39;54.53;100106.06;4841743;29;20390;-75
2021/04/07 06:05:47;;;;;;;2.67;2.17;;;;;;;8.83;52.87;100098.91;4840862;29;20061;-75
2021/04/07 06:08:14;;;;;;;3.30;2.03;;;;;;;9.16;51.12;100095.66;4840117;29;20545;-76
2021/04/07 06:10:46;;;;;;;5.85;2.40;;;;;;;9.38;50.80;100092.94;4838577;29;20569;-75
2021/04/07 06:13:15;;;;;;;4.50;2.25;;;;;;;9.64;49.52;100089.03;4840111;29;20114;-75
2021/04/07 06:15:42;;;;;;;2.28;1.67;;;;;;;9.98;48.55;100085.66;4840828;29;20050;-76
2021/04/07 06:18:11;;;;;;;1.73;1.48;;;;;;;10.31;47.68;100072.69;4841008;29;20089;-68
2021/04/07 06:20:40;;;;;;;3.80;1.60;;;;;;;10.50;46.66;100064.78;4840690;29;20070;-72
2021/04/07 06:23:08;;;;;;;3.65;1.50;;;;;;;10.67;46.84;100071.69;4841871;29;20053;-71
2021/04/07 06:25:35;;;;;;;2.80;2.30;;;;;;;10.44;46.13;100078.97;4840784;29;20129;-71
2021/04/07 06:28:07;;;;;;;3.33;1.58;;;;;;;10.11;45.45;100093.66;4837133;29;20457;-74
2021/04/07 06:30:46;;;;;;;2.30;1.45;;;;;;;10.48;45.35;100108.31;4836952;29;20094;-73
2021/04/07 06:33:25;;;;;;;5.45;2.00;;;;;;;9.83;44.61;100141.91;4821141;29;20524;-74
2021/04/07 06:35:54;;;;;;;5.47;3.38;;;;;;;9.67;47.91;100167.00;4822544;29;20070;-65
2021/04/07 06:38:21;;;;;;;25.48;6.13;;;;;;;9.53;48.98;100170.22;4821539;29;20074;-66
2021/04/07 06:40:49;;;;;;;6.13;3.78;;;;;;;9.78;48.89;100164.72;4821973;29;20066;-66
2021/04/07 06:43:21;;;;;;;4.70;3.17;;;;;;;9.39;48.28;100183.91;4834069;29;20177;-66
2021/04/07 06:45:47;;;;;;;5.35;3.45;;;;;;;9.49;50.13;100192.13;4840326;29;20497;-67
2021/04/07 06:48:15;;;;;;;9.18;5.43;;;;;;;9.82;49.15;100194.91;4827251;29;20562;-68
2021/04/07 06:50:44;;;;;;;4.00;3.33;;;;;;;9.85;47.93;100194.75;4833717;29;20106;-67
2021/04/07 06:53:11;;;;;;;7.95;3.25;;;;;;;10.41;47.39;100199.00;4838543;29;20741;-66
2021/04/07 06:55:38;;;;;;;11.85;3.45;;;;;;;11.00;47.06;100210.72;4830974;29;20045;-65
2021/04/07 06:58:08;;;;;;;3.60;2.92;;;;;;;11.12;46.13;100213.63;4826370;29;20142;-68
2021/04/07 07:18:21;;;;;;;4.97;2.95;;;;;;;11.69;44.08;100190.53;5046296;27;20390;-67
2021/04/07 07:20:48;;;;;;;4.70;2.67;;;;;;;12.30;42.12;100190.53;5045504;28;20073;-67
2021/04/07 07:23:30;;;;;;;3.95;2.33;;;;;;;12.99;41.25;100209.97;5045198;28;20042;-68
2021/04/07 07:26:00;;;;;;;6.40;2.80;;;;;;;13.55;39.57;100216.16;5040901;28;20123;-68
2021/04/07 07:28:38;;;;;;;4.43;2.72;;;;;;;13.96;39.02;100204.81;5046179;28;20048;-67
2021/04/07 07:31:29;;;;;;;3.15;2.83;;;;;;;14.54;37.42;100214.13;5045969;28;20094;-65
2021/04/07 07:33:58;;;;;;;4.70;3.22;;;;;;;14.83;36.48;100213.94;5045667;28;20042;-66
2021/04/07 07:36:27;;;;;;;3.42;3.13;;;;;;;15.04;35.72;100219.50;5045679;28;20042;-66
2021/04/07 07:38:56;;;;;;;4.32;2.63;;;;;;;15.14;36.06;100223.19;5036674;28;20121;-66
2021/04/07 07:41:35;;;;;;;3.35;2.88;;;;;;;15.52;35.20;100225.75;5045316;28;20495;-66
2021/04/07 07:44:16;;;;;;;6.00;2.83;;;;;;;15.88;34.50;100226.72;5029781;28;20042;-66
2021/04/07 07:46:45;;;;;;;6.88;3.38;;;;;;;16.08;33.76;100230.53;5128466;28;20083;-65
2021/04/07 07:49:17;;;;;;;4.78;2.97;;;;;;;16.10;34.43;100233.91;5128151;28;20044;-65
2021/04/07 07:51:49;;;;;;;7.32;3.00;;;;;;;17.02;32.80;100243.66;5008152;28;20046;-65
2021/04/07 07:54:20;;;;;;;4.32;2.80;;;;;;;16.90;33.18;100245.44;5025424;28;20077;-64
2021/04/07 07:56:51;;;;;;;6.78;2.50;;;;;;;17.27;32.50;100245.25;5025214;28;20057;-65
2021/04/07 07:59:25;;;;;;;4.47;2.40;;;;;;;17.97;30.81;100250.22;5025087;28;20049;-64
2021/04/07 08:01:52;;;;;;;;;;;;;;;18.61;29.57;100248.53;5026092;28;20054;-65
2021/04/07 08:04:18;;;;;;;6.38;2.97;;;;;;;18.09;30.64;100245.75;5020764;28;19921;-65
2021/04/07 08:06:46;;;;;;;6.50;3.00;;;;;;;18.49;29.26;100256.50;5022985;28;20128;-64
2021/04/07 08:09:13;;;;;;;5.00;3.08;;;;;;;17.77;29.94;100261.53;5014908;28;20477;-65
2021/04/07 08:11:43;;;;;;;4.65;2.60;;;;;;;17.57;30.04;100268.31;5006776;28;20099;-65
2021/04/07 08:14:16;;;;;;;4.82;2.22;;;;;;;17.87;29.32;100266.91;5002282;28;20171;-65
2021/04/07 08:16:44;;;;;;;3.40;2.53;;;;;;;18.55;28.72;100269.19;5011604;28;20077;-65
2021/04/07 08:19:12;;;;;;;6.38;2.65;;;;;;;18.24;28.82;100273.50;4990534;28;20408;-65
2021/04/07 08:21:42;;;;;;;4.25;1.75;;;;;;;19.16;27.25;100286.16;4991548;28;20050;-64
2021/04/07 08:24:12;;;;;;;2.63;1.90;;;;;;;18.85;26.78;100286.09;5006013;28;20099;-65
2021/04/07 08:26:42;;;;;;;2.90;1.65;;;;;;;18.65;27.12;100289.56;5008596;28;20045;-64
2021/04/07 08:29:09;;;;;;;1.67;1.30;;;;;;;17.98;26.85;100296.72;5040386;28;20053;-72
2021/04/07 08:31:37;;;;;;;2.65;1.42;;;;;;;18.64;26.62;100301.91;5009937;28;20045;-72
2021/04/07 08:34:08;;;;;;;3.30;1.30;;;;;;;18.54;26.46;100304.47;5009649;28;20050;-70
2021/04/07 08:36:36;;;;;;;4.30;1.73;;;;;;;19.61;25.82;100305.22;5008195;28;20591;-61
2021/04/07 08:39:11;;;;;;;2.45;1.60;;;;;;;20.10;24.94;100316.75;5008705;28;20034;-61
2021/04/07 08:41:39;;;;;;;4.35;1.85;;;;;;;18.96;25.49;100324.81;5005220;28;20141;-61
2021/04/07 08:44:06;;;;;;;2.50;1.63;;;;;;;18.64;26.73;100323.03;5008206;28;20038;-61
2021/04/07 08:46:45;;;;;;;1.50;1.40;;;;;;;18.98;26.33;100328.19;5005216;28;20124;-61
2021/04/07 08:49:41;;;;;;;4.28;2.35;;;;;;;19.32;25.94;100321.72;4998442;28;20447;-61
2021/04/07 08:52:24;;;;;;;3.97;2.40;;;;;;;19.94;26.13;100324.38;4995357;28;20445;-61
2021/04/07 08:54:58;;;;;;;4.97;2.33;;;;;;;19.80;25.72;100326.41;5001153;28;20481;-61
2021/04/07 08:57:25;;;;;;;21.70;2.90;;;;;;;19.42;26.92;100331.50;5006596;28;20053;-62
2021/04/07 08:59:53;;;;;;;4.82;2.45;;;;;;;19.61;26.95;100329.00;5002742;28;20124;-61
2021/04/07 09:02:19;;;;;;;4.53;2.75;;;;;;;20.02;26.55;100319.25;4991092;28;20038;-61
2021/04/07 09:05:03;;;;;;;5.78;3.22;;;;;;;19.45;26.31;100332.09;4997813;28;20049;-61
2021/04/07 09:07:43;;;;;;;5.78;3.78;;;;;;;19.54;27.49;100327.81;4997840;28;20042;-62
2021/04/07 09:10:17;;;;;;;9.57;4.07;;;;;;;19.77;27.00;100341.75;5001902;28;20129;-61
2021/04/07 09:12:48;;;;;;;4.75;3.60;;;;;;;20.27;26.59;100331.97;4993673;28;20058;-62
2021/04/07 09:15:16;;;;;;;7.65;3.58;;;;;;;20.09;26.52;100328.31;4990945;28;20129;-62
2021/04/07 09:17:44;;;;;;;4.88;3.08;;;;;;;19.45;26.81;100336.56;4996598;28;20500;-62
2021/04/07 09:20:32;;;;;;;6.70;3.42;;;;;;;19.19;27.63;100336.97;5008598;28;20038;-61
2021/04/07 09:23:14;;;;;;;4.50;3.08;;;;;;;18.26;28.58;100341.97;5009069;28;20102;-62
2021/04/07 09:25:55;;;;;;;3.70;2.83;;;;;;;18.35;27.87;100343.88;5009394;28;20042;-61
2021/04/07 09:28:38;;;;;;;5.10;3.40;;;;;;;17.65;28.82;100347.66;5005693;28;20037;-62
2021/04/07 09:31:06;;;;;;;3.20;2.83;;;;;;;17.80;28.20;100343.84;5006357;28;20034;-62
2021/04/07 09:33:36;;;;;;;8.38;3.80;;;;;;;17.20;29.61;100350.22;5009033;28;20129;-61
2021/04/07 09:36:03;;;;;;;4.00;3.35;;;;;;;16.66;28.46;100348.09;5009670;28;20094;-61
2021/04/07 09:38:31;;;;;;;21.13;4.00;;;;;;;17.04;28.78;100352.34;5009201;28;20078;-61
2021/04/07 09:41:23;;;;;;;4.40;2.83;;;;;;;16.35;29.09;100354.78;5007518;28;20042;-61
2021/04/07 09:43:49;;;;;;;7.05;3.70;;;;;;;16.11;28.95;100364.41;4992307;28;20069;-61
2021/04/07 09:46:16;;;;;;;5.93;2.75;;;;;;;15.85;28.99;100363.63;5006171;28;20084;-61
2021/04/07 09:48:59;;;;;;;5.35;2.60;;;;;;;15.81;29.83;100359.53;5007217;28;20077;-61
2021/04/07 09:51:33;;;;;;;5.25;2.72;;;;;;;15.59;29.86;100362.78;5006350;28;20068;-61
2021/04/07 09:54:24;;;;;;;2.83;2.28;;;;;;;15.23;29.55;100371.38;5004157;28;20049;-61
2021/04/07 09:57:00;;;;;;;3.50;2.95;;;;;;;14.88;29.15;100356.19;4985752;28;20153;-60
2021/04/07 09:59:40;;;;;;;4.05;3.22;;;;;;;14.70;28.83;100365.25;4989849;28;20050;-61
2021/04/07 10:02:10;;;;;;;4.10;2.83;;;;;;;14.68;29.62;100368.00;5005524;28;20042;-61
2021/04/07 10:04:38;;;;;;;9.27;3.05;;;;;;;14.56;29.66;100369.63;5008445;28;20080;-60
2021/04/07 10:07:24;;;;;;;5.82;2.63;;;;;;;14.68;29.98;100373.25;5005551;28;20128;-61
2021/04/07 10:09:53;;;;;;;5.95;2.92;;;;;;;14.41;28.70;100373.19;5006057;28;20125;-60
2021/04/07 10:12:24;;;;;;;4.35;2.78;;;;;;;14.27;29.48;100366.19;4996922;28;20120;-60
2021/04/07 10:14:53;;;;;;;3.75;2.70;;;;;;;14.33;30.21;100372.88;5005107;28;20068;-61
2021/04/07 10:17:34;;;;;;;5.40;3.17;;;;;;;14.07;29.96;100367.47;5000320;28;20050;-61
2021/04/07 10:20:12;;;;;;;4.43;2.67;;;;;;;13.80;27.50;100371.81;5003508;28;20716;-64
2021/04/07 10:22:40;;;;;;;4.00;1.92;;;;;;;13.94;28.07;100371.78;5010003;28;20049;-64
2021/04/07 10:27:41;;;;;;;3.88;2.60;;;;;;;13.90;28.40;100370.28;4996303;28;20054;-62
2021/04/07 10:30:14;;;;;;;3.03;2.55;;;;;;;13.94;28.29;100365.72;4986996;28;20050;-62
2021/04/07 10:32:42;;;;;;;2.55;2.33;;;;;;;13.89;27.99;100365.97;5004162;28;20049;-64
2021/04/07 10:35:16;;;;;;;5.10;2.15;;;;;;;13.76;29.32;100367.69;5006425;28;20045;-64
2021/04/07 10:37:52;;;;;;;3.88;2.65;;;;;;;13.89;28.09;100368.59;5005498;28;20464;-64
2021/04/07 10:40:20;;;;;;;4.95;3.33;;;;;;;13.97;27.40;100365.53;5004799;28;20041;-63
2021/04/07 10:42:47;;;;;;;5.13;3.17;;;;;;;13.88;26.99;100372.16;5005159;28;20436;-60
2021/04/07 10:45:17;;;;;;;5.53;3.00;;;;;;;13.87;25.65;100358.22;5005403;28;20042;-62
2021/04/07 10:47:44;;;;;;;2.28;1.90;;;;;;;13.71;24.86;100367.97;5002839;28;20133;-60
2021/04/07 10:50:12;;;;;;;3.05;2.40;;;;;;;13.94;23.22;100363.91;5004527;28;20518;-64
2021/04/07 10:52:41;;;;;;;3.05;2.42;;;;;;;13.99;23.18;100363.63;5006907;28;20404;-62
2021/04/07 10:55:10;;;;;;;7.43;2.40;;;;;;;14.01;23.57;100362.63;5008297;28;20518;-63
2021/04/07 10:57:45;;;;;;;6.57;3.05;;;;;;;13.84;22.53;100370.66;5006896;28;20073;-63
2021/04/07 11:00:23;;;;;;;2.63;2.15;;;;;;;13.56;22.36;100372.34;5005669;28;20069;-64
2021/04/07 11:02:52;;;;;;;3.40;2.15;;;;;;;13.75;21.88;100366.84;5006135;28;20042;-63
2021/04/07 11:05:21;;;;;;;4.05;2.40;;;;;;;13.83;22.08;100369.00;5008827;28;20504;-63
2021/04/07 11:07:58;;;;;;;3.15;2.60;;;;;;;13.66;22.74;100367.41;5004576;28;20073;-63
2021/04/07 11:10:25;;;;;;;7.95;2.70;;;;;;;13.71;23.71;100373.22;5007340;28;20050;-63
2021/04/07 11:12:51;;;;;;;6.40;2.75;;;;;;;13.86;22.21;100371.44;5005471;28;20046;-64
2021/04/07 11:15:18;;;;;;;3.33;2.15;;;;;;;13.82;21.07;100375.16;5007486;28;20522;-64
2021/04/07 11:17:50;;;;;;;2.22;2.03;;;;;;;13.65;20.36;100378.81;5007001;28;20062;-63
2021/04/07 11:20:16;;;;;;;2.97;2.70;;;;;;;13.83;21.33;100380.31;5005926;28;20046;-64
2021/04/07 11:22:43;;;;;;;3.22;2.35;;;;;;;13.82;22.08;100377.78;5007734;28;20129;-63
2021/04/07 11:25:09;;;;;;;3.13;2.65;;;;;;;14.02;21.07;100384.44;5005974;28;20050;-63
2021/04/07 11:27:37;;;;;;;2.85;2.65;;;;;;;13.85;20.33;100380.22;5006382;28;20057;-62
2021/04/07 11:30:05;;;;;;;2.63;2.42;;;;;;;13.83;19.30;100379.47;5005732;28;20045;-63
2021/04/07 11:32:34;;;;;;;18.50;2.45;;;;;;;13.61;19.34;100377.31;5005532;28;20129;-63
2021/04/07 11:38:09;;;;;;;4.45;2.83;;;;;;;13.61;21.12;100382.56;5006578;28;20515;-63
2021/04/07 11:43:26;;;;;;;3.25;2.85;;;;;;;13.85;23.39;100378.47;5008015;28;20050;-65
2021/04/07 11:45:53;;;;;;;6.00;2.90;;;;;;;13.77;23.08;100374.59;5008083;28;20058;-65
2021/04/07 11:48:38;;;;;;;3.97;2.53;;;;;;;13.79;21.88;100383.22;5008410;28;20098;-64
2021/04/07 11:51:05;;;;;;;2.85;2.50;;;;;;;13.77;21.25;100396.41;5005727;28;20038;-64
2021/04/07 11:53:32;;;;;;;2.65;2.45;;;;;;;13.42;19.84;100385.41;5009340;28;20045;-64
2021/04/07 11:55:58;;;;;;;7.75;2.65;;;;;;;13.89;22.08;100376.47;5004911;28;20046;-64
2021/04/07 11:58:25;;;;;;;3.90;2.67;;;;;;;14.05;22.26;100385.06;5000460;28;20050;-64
2021/04/07 12:00:51;;;;;;;3.65;2.67;;;;;;;14.11;21.88;100386.47;5012862;28;21404;-63
2021/04/07 12:03:18;;;;;;;5.45;3.13;;;;;;;14.06;22.35;100386.78;5002221;28;20042;-62
2021/04/07 12:05:45;;;;;;;3.50;2.42;;;;;;;13.73;20.45;100391.44;5008061;28;20573;-63
2021/04/07 12:08:11;;;;;;;2.67;2.47;;;;;;;13.57;19.90;100386.28;5002658;28;20049;-63